Time,TemperatureF,DewpointF,PressureIn,WindDirection,WindDirectionDegrees,WindSpeedMPH,WindSpeedGustMPH,Humidity,HourlyPrecipIn,Conditions,Clouds,dailyrainin,SoftwareType,DateUTC
2013-01-13 00:10:00,36.9,30.7,-100.00,North,-999,0.0,0.0,78,0.00,,,-99.99,FreeWX-Wi 1.01,2013-01-13 05:10:00,
2013-01-13 00:21:00,36.9,30.7,-100.00,North,-999,0.0,0.0,78,0.00,,,-99.99,FreeWX-Wi 1.01,2013-01-13 05:21:00,
2013-01-13 00:31:00,36.9,30.4,-100.00,North,-999,0.0,0.0,77,0.00,,,-99.99,FreeWX-Wi 1.01,2013-01-13 05:31:00,
2013-01-13 00:41:00,36.9,30.4,-100.00,North,-999,0.0,0.0,77,0.00,,,-99.99,FreeWX-Wi 1.01,2013-01-13 05:41:00,
2013-01-13 00:50:00,36.7,30.6,-100.00,North,-999,0.0,0.0,78,0.00,,,-99.99,FreeWX-Wi 1.01,2013-01-13 05:50:00,
2013-01-13 01:01:00,36.7,30.6,-100.00,North,-999,0.0,0.0,78,0.00,,,-99.99,FreeWX-Wi 1.01,2013-01-13 06:01:00,
2013-01-13 01:10:00,36.7,30.6,-100.00,North,-999,0.0,0.0,78,0.00,,,-99.99,FreeWX-Wi 1.01,2013-01-13 06:10:00,
2013-01-13 01:21:00,36.9,30.9,-100.00,North,-999,0.0,0.0,79,0.00,,,-99.99,FreeWX-Wi 1.01,2013-01-13 06:21:00,
2013-01-13 01:30:00,37.0,31.1,-100.00,North,-999,0.0,0.0,79,0.00,,,-99.99,FreeWX-Wi 1.01,2013-01-13 06:30:00,
2013-01-13 01:40:00,37.0,31.1,-100.00,North,-999,0.0,0.0,79,0.00,,,-99.99,FreeWX-Wi 1.01,2013-01-13 06:40:00,
2013-01-13 01:50:00,37.0,30.7,-100.00,North,-999,0.0,0.0,78,0.00,,,-99.99,FreeWX-Wi 1.01,2013-01-13 06:50:00,
2013-01-13 02:00:00,37.0,31.1,-100.00,North,-999,0.0,0.0,79,0.00,,,-99.99,FreeWX-Wi 1.01,2013-01-13 07:00:00,
2013-01-13 02:10:00,37.0,31.5,-100.00,North,-999,0.0,0.0,80,0.00,,,-99.99,FreeWX-Wi 1.01,2013-01-13 07:10:00,
2013-01-13 02:20:00,37.2,31.3,-100.00,North,-999,0.0,0.0,79,0.00,,,-99.99,FreeWX-Wi 1.01,2013-01-13 07:20:00,
2013-01-13 02:31:00,37.2,31.3,-100.00,North,-999,0.0,0.0,79,0.00,,,-99.99,FreeWX-Wi 1.01,2013-01-13 07:31:00,
2013-01-13 02:40:00,37.2,30.9,-100.00,North,-999,0.0,0.0,78,0.00,,,-99.99,FreeWX-Wi 1.01,2013-01-13 07:40:00,
2013-01-13 02:51:00,37.0,30.7,-100.00,North,-999,0.0,0.0,78,0.00,,,-99.99,FreeWX-Wi 1.01,2013-01-13 07:51:00,
2013-01-13 03:01:00,37.0,31.5,-100.00,North,-999,0.0,0.0,80,0.00,,,-99.99,FreeWX-Wi 1.01,2013-01-13 08:01:00,
2013-01-13 03:12:00,37.0,31.5,-100.00,North,-999,0.0,0.0,80,0.00,,,-99.99,FreeWX-Wi 1.01,2013-01-13 08:12:00,
2013-01-13 03:22:00,37.2,32.0,-100.00,North,-999,0.0,0.0,81,0.00,,,-99.99,FreeWX-Wi 1.01,2013-01-13 08:22:00,
2013-01-13 03:31:00,37.4,31.8,-100.00,North,-999,0.0,0.0,80,0.00,,,-99.99,FreeWX-Wi 1.01,2013-01-13 08:31:00,
2013-01-13 03:42:00,37.4,31.8,-100.00,North,-999,0.0,0.0,80,0.00,,,-99.99,FreeWX-Wi 1.01,2013-01-13 08:42:00,
2013-01-13 03:52:00,37.4,31.8,-100.00,North,-999,0.0,0.0,80,0.00,,,-99.99,FreeWX-Wi 1.01,2013-01-13 08:52:00,
2013-01-13 04:01:00,37.4,31.8,-100.00,North,-999,0.0,0.0,80,0.00,,,-99.99,FreeWX-Wi 1.01,2013-01-13 09:01:00,
2013-01-13 04:12:00,37.4,31.8,-100.00,North,-999,0.0,0.0,80,0.00,,,-99.99,FreeWX-Wi 1.01,2013-01-13 09:12:00,
2013-01-13 04:22:00,37.2,31.6,-100.00,North,-999,0.0,0.0,80,0.00,,,-99.99,FreeWX-Wi 1.01,2013-01-13 09:22:00,
2013-01-13 04:31:00,37.2,32.0,-100.00,North,-999,0.0,0.0,81,0.00,,,-99.99,FreeWX-Wi 1.01,2013-01-13 09:31:00,
2013-01-13 04:41:00,37.2,32.0,-100.00,North,-999,0.0,0.0,81,0.00,,,-99.99,FreeWX-Wi 1.01,2013-01-13 09:41:00,
2013-01-13 04:51:00,37.2,32.0,-100.00,North,-999,0.0,0.0,81,0.00,,,-99.99,FreeWX-Wi 1.01,2013-01-13 09:51:00,
2013-01-13 05:02:00,37.4,32.2,-100.00,North,-999,0.0,0.0,81,0.00,,,-99.99,FreeWX-Wi 1.01,2013-01-13 10:02:00,
2013-01-13 05:11:00,37.4,32.4,-100.00,North,-999,0.0,0.0,82,0.00,,,-99.99,FreeWX-Wi 1.01,2013-01-13 10:11:00,
2013-01-13 05:21:00,37.4,32.2,-100.00,North,-999,0.0,0.0,81,0.00,,,-99.99,FreeWX-Wi 1.01,2013-01-13 10:21:00,
2013-01-13 05:33:00,37.4,32.2,-100.00,North,-999,0.0,0.0,81,0.00,,,-99.99,FreeWX-Wi 1.01,2013-01-13 10:33:00,
2013-01-13 05:42:00,37.4,32.2,-100.00,North,-999,0.0,0.0,81,0.00,,,-99.99,FreeWX-Wi 1.01,2013-01-13 10:42:00,
2013-01-13 05:52:00,37.4,32.4,-100.00,North,-999,0.0,0.0,82,0.00,,,-99.99,FreeWX-Wi 1.01,2013-01-13 10:52:00,
2013-01-13 06:03:00,37.4,32.4,-100.00,North,-999,0.0,0.0,82,0.00,,,-99.99,FreeWX-Wi 1.01,2013-01-13 11:03:00,
2013-01-13 06:12:00,37.6,32.5,-100.00,North,-999,0.0,0.0,82,0.00,,,-99.99,FreeWX-Wi 1.01,2013-01-13 11:12:00,
2013-01-13 06:22:00,37.6,32.5,-100.00,North,-999,0.0,0.0,82,0.00,,,-99.99,FreeWX-Wi 1.01,2013-01-13 11:22:00,
2013-01-13 06:32:00,37.4,32.4,-100.00,North,-999,0.0,0.0,82,0.00,,,-99.99,FreeWX-Wi 1.01,2013-01-13 11:32:00,
2013-01-13 06:42:00,37.4,32.4,-100.00,North,-999,0.0,0.0,82,0.00,,,-99.99,FreeWX-Wi 1.01,2013-01-13 11:42:00,
2013-01-13 06:53:00,37.6,32.9,-100.00,North,-999,0.0,0.0,83,0.00,,,-99.99,FreeWX-Wi 1.01,2013-01-13 11:53:00,
2013-01-13 07:02:00,37.6,32.9,-100.00,North,-999,0.0,0.0,83,0.00,,,-99.99,FreeWX-Wi 1.01,2013-01-13 12:02:00,
2013-01-13 07:13:00,37.6,32.9,-100.00,North,-999,0.0,0.0,83,0.00,,,-99.99,FreeWX-Wi 1.01,2013-01-13 12:13:00,
2013-01-13 07:23:00,37.6,32.9,-100.00,North,-999,0.0,0.0,83,0.00,,,-99.99,FreeWX-Wi 1.01,2013-01-13 12:23:00,
2013-01-13 07:33:00,37.6,32.9,-100.00,North,-999,0.0,0.0,83,0.00,,,-99.99,FreeWX-Wi 1.01,2013-01-13 12:33:00,
2013-01-13 07:42:00,37.8,33.1,-100.00,North,-999,0.0,0.0,83,0.00,,,-99.99,FreeWX-Wi 1.01,2013-01-13 12:42:00,
2013-01-13 07:52:00,37.8,33.1,-100.00,North,-999,0.0,0.0,83,0.00,,,-99.99,FreeWX-Wi 1.01,2013-01-13 12:52:00,
2013-01-13 08:02:00,37.9,33.6,-100.00,North,-999,0.0,0.0,84,0.00,,,-99.99,FreeWX-Wi 1.01,2013-01-13 13:02:00,
2013-01-13 08:13:00,38.1,33.8,-100.00,North,-999,0.0,0.0,84,0.00,,,-99.99,FreeWX-Wi 1.01,2013-01-13 13:13:00,
2013-01-13 08:23:00,38.3,34.0,-100.00,North,-999,0.0,0.0,84,0.00,,,-99.99,FreeWX-Wi 1.01,2013-01-13 13:23:00,
2013-01-13 08:33:00,38.5,34.2,-100.00,North,-999,0.0,0.0,84,0.00,,,-99.99,FreeWX-Wi 1.01,2013-01-13 13:33:00,
2013-01-13 08:42:00,38.7,34.5,-100.00,North,-999,0.0,0.0,85,0.00,,,-99.99,FreeWX-Wi 1.01,2013-01-13 13:42:00,
2013-01-13 08:52:00,39.0,34.9,-100.00,North,-999,0.0,0.0,85,0.00,,,-99.99,FreeWX-Wi 1.01,2013-01-13 13:52:00,
2013-01-13 09:03:00,39.4,34.9,-100.00,North,-999,0.0,0.0,84,0.00,,,-99.99,FreeWX-Wi 1.01,2013-01-13 14:03:00,
2013-01-13 09:13:00,39.4,34.9,-100.00,North,-999,0.0,0.0,84,0.00,,,-99.99,FreeWX-Wi 1.01,2013-01-13 14:13:00,
2013-01-13 09:23:00,39.7,35.6,-100.00,North,-999,0.0,0.0,85,0.00,,,-99.99,FreeWX-Wi 1.01,2013-01-13 14:23:00,
2013-01-13 09:33:00,39.9,35.8,-100.00,North,-999,0.0,0.0,85,0.00,,,-99.99,FreeWX-Wi 1.01,2013-01-13 14:33:00,
2013-01-13 09:42:00,40.3,36.1,-100.00,North,-999,0.0,0.0,85,0.00,,,-99.99,FreeWX-Wi 1.01,2013-01-13 14:42:00,
2013-01-13 09:53:00,40.8,37.0,-100.00,North,-999,0.0,0.0,86,0.00,,,-99.99,FreeWX-Wi 1.01,2013-01-13 14:53:00,
2013-01-13 10:02:00,41.0,36.9,-100.00,North,-999,0.0,0.0,85,0.00,,,-99.99,FreeWX-Wi 1.01,2013-01-13 15:02:00,
2013-01-13 10:13:00,41.2,37.0,-100.00,North,-999,0.0,0.0,85,0.00,,,-99.99,FreeWX-Wi 1.01,2013-01-13 15:13:00,
2013-01-13 10:22:00,41.4,37.2,-100.00,North,-999,0.0,0.0,85,0.00,,,-99.99,FreeWX-Wi 1.01,2013-01-13 15:22:00,
2013-01-13 10:32:00,41.5,37.4,-100.00,North,-999,0.0,0.0,85,0.00,,,-99.99,FreeWX-Wi 1.01,2013-01-13 15:32:00,
2013-01-13 10:43:00,41.7,37.6,-100.00,North,-999,0.0,0.0,85,0.00,,,-99.99,FreeWX-Wi 1.01,2013-01-13 15:43:00,
2013-01-13 10:52:00,41.9,37.9,-100.00,North,-999,0.0,0.0,86,0.00,,,-99.99,FreeWX-Wi 1.01,2013-01-13 15:52:00,
2013-01-13 11:02:00,42.3,38.3,-100.00,North,-999,0.0,0.0,86,0.00,,,-99.99,FreeWX-Wi 1.01,2013-01-13 16:02:00,
2013-01-13 11:12:00,42.3,38.3,-100.00,North,-999,0.0,0.0,86,0.00,,,-99.99,FreeWX-Wi 1.01,2013-01-13 16:12:00,
2013-01-13 11:22:00,42.6,38.7,-100.00,North,-999,0.0,0.0,86,0.00,,,-99.99,FreeWX-Wi 1.01,2013-01-13 16:22:00,
2013-01-13 11:32:00,42.8,38.8,-100.00,North,-999,0.0,0.0,86,0.00,,,-99.99,FreeWX-Wi 1.01,2013-01-13 16:32:00,
2013-01-13 11:42:00,43.0,39.0,-100.00,North,-999,0.0,0.0,86,0.00,,,-99.99,FreeWX-Wi 1.01,2013-01-13 16:42:00,
2013-01-13 11:53:00,43.2,39.2,-100.00,North,-999,0.0,0.0,86,0.00,,,-99.99,FreeWX-Wi 1.01,2013-01-13 16:53:00,
2013-01-13 12:03:00,43.3,39.4,-100.00,North,-999,0.0,0.0,86,0.00,,,-99.99,FreeWX-Wi 1.01,2013-01-13 17:03:00,
2013-01-13 12:13:00,43.5,39.9,-100.00,North,-999,0.0,0.0,87,0.00,,,-99.99,FreeWX-Wi 1.01,2013-01-13 17:13:00,
2013-01-13 12:23:00,43.5,39.6,-100.00,North,-999,0.0,0.0,86,0.00,,,-99.99,FreeWX-Wi 1.01,2013-01-13 17:23:00,
2013-01-13 12:34:00,43.7,40.1,-100.00,North,-999,0.0,0.0,87,0.00,,,-99.99,FreeWX-Wi 1.01,2013-01-13 17:34:00,
2013-01-13 12:43:00,43.7,40.1,-100.00,North,-999,0.0,0.0,87,0.00,,,-99.99,FreeWX-Wi 1.01,2013-01-13 17:43:00,
2013-01-13 12:54:00,43.9,40.3,-100.00,North,-999,0.0,0.0,87,0.00,,,-99.99,FreeWX-Wi 1.01,2013-01-13 17:54:00,
2013-01-13 13:03:00,43.9,40.3,-100.00,North,-999,0.0,0.0,87,0.00,,,-99.99,FreeWX-Wi 1.01,2013-01-13 18:03:00,
2013-01-13 13:14:00,44.1,40.5,-100.00,North,-999,0.0,0.0,87,0.00,,,-99.99,FreeWX-Wi 1.01,2013-01-13 18:14:00,
2013-01-13 13:24:00,44.4,41.2,-100.00,North,-999,0.0,0.0,88,0.00,,,-99.99,FreeWX-Wi 1.01,2013-01-13 18:24:00,
2013-01-13 13:34:00,44.6,41.0,-100.00,North,-999,0.0,0.0,87,0.00,,,-99.99,FreeWX-Wi 1.01,2013-01-13 18:34:00,
2013-01-13 13:44:00,44.8,41.2,-100.00,North,-999,0.0,0.0,87,0.00,,,-99.99,FreeWX-Wi 1.01,2013-01-13 18:44:00,
2013-01-13 13:53:00,45.0,41.4,-100.00,North,-999,0.0,0.0,87,0.00,,,-99.99,FreeWX-Wi 1.01,2013-01-13 18:53:00,
2013-01-13 14:04:00,45.0,41.4,-100.00,North,-999,0.0,0.0,87,0.00,,,-99.99,FreeWX-Wi 1.01,2013-01-13 19:04:00,
2013-01-13 14:13:00,45.1,41.5,-100.00,North,-999,0.0,0.0,87,0.00,,,-99.99,FreeWX-Wi 1.01,2013-01-13 19:13:00,
2013-01-13 14:24:00,45.1,41.5,-100.00,North,-999,0.0,0.0,87,0.00,,,-99.99,FreeWX-Wi 1.01,2013-01-13 19:24:00,
2013-01-13 14:34:00,45.3,41.7,-100.00,North,-999,0.0,0.0,87,0.00,,,-99.99,FreeWX-Wi 1.01,2013-01-13 19:34:00,
2013-01-13 14:45:00,45.3,41.7,-100.00,North,-999,0.0,0.0,87,0.00,,,-99.99,FreeWX-Wi 1.01,2013-01-13 19:45:00,
2013-01-13 14:54:00,45.3,41.9,-100.00,North,-999,0.0,0.0,88,0.00,,,-99.99,FreeWX-Wi 1.01,2013-01-13 19:54:00,
2013-01-13 15:05:00,45.5,42.1,-100.00,North,-999,0.0,0.0,88,0.00,,,-99.99,FreeWX-Wi 1.01,2013-01-13 20:05:00,
2013-01-13 15:15:00,45.5,42.1,-100.00,North,-999,0.0,0.0,88,0.00,,,-99.99,FreeWX-Wi 1.01,2013-01-13 20:15:00,
2013-01-13 15:25:00,45.7,42.3,-100.00,North,-999,0.0,0.0,88,0.00,,,-99.99,FreeWX-Wi 1.01,2013-01-13 20:25:00,
2013-01-13 15:35:00,45.7,42.3,-100.00,North,-999,0.0,0.0,88,0.00,,,-99.99,FreeWX-Wi 1.01,2013-01-13 20:35:00,
2013-01-13 15:45:00,45.7,42.3,-100.00,North,-999,0.0,0.0,88,0.00,,,-99.99,FreeWX-Wi 1.01,2013-01-13 20:45:00,
2013-01-13 15:55:00,45.7,42.3,-100.00,North,-999,0.0,0.0,88,0.00,,,-99.99,FreeWX-Wi 1.01,2013-01-13 20:55:00,
2013-01-13 16:05:00,45.7,42.3,-100.00,North,-999,0.0,0.0,88,0.00,,,-99.99,FreeWX-Wi 1.01,2013-01-13 21:05:00,
2013-01-13 16:15:00,45.5,42.1,-100.00,North,-999,0.0,0.0,88,0.00,,,-99.99,FreeWX-Wi 1.01,2013-01-13 21:15:00,
2013-01-13 16:25:00,45.5,42.1,-100.00,North,-999,0.0,0.0,88,0.00,,,-99.99,FreeWX-Wi 1.01,2013-01-13 21:25:00,
2013-01-13 16:35:00,45.5,42.1,-100.00,North,-999,0.0,0.0,88,0.00,,,-99.99,FreeWX-Wi 1.01,2013-01-13 21:35:00,
2013-01-13 16:45:00,45.5,42.1,-100.00,North,-999,0.0,0.0,88,0.00,,,-99.99,FreeWX-Wi 1.01,2013-01-13 21:45:00,
2013-01-13 16:55:00,45.5,41.9,-100.00,North,-999,0.0,0.0,87,0.00,,,-99.99,FreeWX-Wi 1.01,2013-01-13 21:55:00,
2013-01-13 17:05:00,45.3,41.7,-100.00,North,-999,0.0,0.0,87,0.00,,,-99.99,FreeWX-Wi 1.01,2013-01-13 22:05:00,
2013-01-13 17:15:00,45.1,41.7,-100.00,North,-999,0.0,0.0,88,0.00,,,-99.99,FreeWX-Wi 1.01,2013-01-13 22:15:00,
2013-01-13 17:25:00,45.1,41.7,-100.00,North,-999,0.0,0.0,88,0.00,,,-99.99,FreeWX-Wi 1.01,2013-01-13 22:25:00,
2013-01-13 17:35:00,45.1,41.7,-100.00,North,-999,0.0,0.0,88,0.00,,,-99.99,FreeWX-Wi 1.01,2013-01-13 22:35:00,
2013-01-13 17:45:00,45.1,41.7,-100.00,North,-999,0.0,0.0,88,0.00,,,-99.99,FreeWX-Wi 1.01,2013-01-13 22:45:00,
2013-01-13 17:55:00,45.0,41.5,-100.00,North,-999,0.0,0.0,88,0.00,,,-99.99,FreeWX-Wi 1.01,2013-01-13 22:55:00,
2013-01-13 18:05:00,45.1,41.7,-100.00,North,-999,0.0,0.0,88,0.00,,,-99.99,FreeWX-Wi 1.01,2013-01-13 23:05:00,
2013-01-13 18:15:00,45.1,41.7,-100.00,North,-999,0.0,0.0,88,0.00,,,-99.99,FreeWX-Wi 1.01,2013-01-13 23:15:00,
2013-01-13 18:25:00,45.3,41.9,-100.00,North,-999,0.0,0.0,88,0.00,,,-99.99,FreeWX-Wi 1.01,2013-01-13 23:25:00,
2013-01-13 18:35:00,45.3,41.9,-100.00,North,-999,0.0,0.0,88,0.00,,,-99.99,FreeWX-Wi 1.01,2013-01-13 23:35:00,
2013-01-13 18:45:00,45.1,41.7,-100.00,North,-999,0.0,0.0,88,0.00,,,-99.99,FreeWX-Wi 1.01,2013-01-13 23:45:00,
2013-01-13 18:55:00,45.1,41.7,-100.00,North,-999,0.0,0.0,88,0.00,,,-99.99,FreeWX-Wi 1.01,2013-01-13 23:55:00,
2013-01-13 19:05:00,45.3,41.9,-100.00,North,-999,0.0,0.0,88,0.00,,,-99.99,FreeWX-Wi 1.01,2013-01-14 00:05:00,
2013-01-13 19:15:00,45.3,41.9,-100.00,North,-999,0.0,0.0,88,0.00,,,-99.99,FreeWX-Wi 1.01,2013-01-14 00:15:00,
2013-01-13 19:25:00,45.3,41.9,-100.00,North,-999,0.0,0.0,88,0.00,,,-99.99,FreeWX-Wi 1.01,2013-01-14 00:25:00,
2013-01-13 19:35:00,45.5,42.1,-100.00,North,-999,0.0,0.0,88,0.00,,,-99.99,FreeWX-Wi 1.01,2013-01-14 00:35:00,
2013-01-13 19:45:00,45.7,42.6,-100.00,North,-999,0.0,0.0,89,0.00,,,-99.99,FreeWX-Wi 1.01,2013-01-14 00:45:00,
2013-01-13 19:55:00,45.9,42.4,-100.00,North,-999,0.0,0.0,88,0.00,,,-99.99,FreeWX-Wi 1.01,2013-01-14 00:55:00,
2013-01-13 20:05:00,45.9,42.4,-100.00,North,-999,0.0,0.0,88,0.00,,,-99.99,FreeWX-Wi 1.01,2013-01-14 01:05:00,
2013-01-13 20:15:00,45.9,42.4,-100.00,North,-999,0.0,0.0,88,0.00,,,-99.99,FreeWX-Wi 1.01,2013-01-14 01:15:00,
2013-01-13 20:25:00,46.0,42.6,-100.00,North,-999,0.0,0.0,88,0.00,,,-99.99,FreeWX-Wi 1.01,2013-01-14 01:25:00,
2013-01-13 20:35:00,46.2,42.8,-100.00,North,-999,0.0,0.0,88,0.00,,,-99.99,FreeWX-Wi 1.01,2013-01-14 01:35:00,
2013-01-13 20:45:00,46.2,42.8,-100.00,North,-999,0.0,0.0,88,0.00,,,-99.99,FreeWX-Wi 1.01,2013-01-14 01:45:00,
2013-01-13 20:55:00,46.2,42.6,-100.00,North,-999,0.0,0.0,87,0.00,,,-99.99,FreeWX-Wi 1.01,2013-01-14 01:55:00,
2013-01-13 21:05:00,46.4,42.8,-100.00,North,-999,0.0,0.0,87,0.00,,,-99.99,FreeWX-Wi 1.01,2013-01-14 02:05:00,
2013-01-13 21:15:00,46.4,42.4,-100.00,North,-999,0.0,0.0,86,0.00,,,-99.99,FreeWX-Wi 1.01,2013-01-14 02:15:00,
2013-01-13 21:25:00,46.4,42.4,-100.00,North,-999,0.0,0.0,86,0.00,,,-99.99,FreeWX-Wi 1.01,2013-01-14 02:25:00,
2013-01-13 21:35:00,46.4,42.4,-100.00,North,-999,0.0,0.0,86,0.00,,,-99.99,FreeWX-Wi 1.01,2013-01-14 02:35:00,
2013-01-13 21:45:00,46.4,42.1,-100.00,North,-999,0.0,0.0,85,0.00,,,-99.99,FreeWX-Wi 1.01,2013-01-14 02:45:00,
2013-01-13 21:55:00,46.6,42.1,-100.00,North,-999,0.0,0.0,84,0.00,,,-99.99,FreeWX-Wi 1.01,2013-01-14 02:55:00,
2013-01-13 22:05:00,46.4,41.5,-100.00,North,-999,0.0,0.0,83,0.00,,,-99.99,FreeWX-Wi 1.01,2013-01-14 03:05:00,
2013-01-13 22:15:00,46.6,41.7,-100.00,North,-999,0.0,0.0,83,0.00,,,-99.99,FreeWX-Wi 1.01,2013-01-14 03:15:00,
2013-01-13 22:25:00,46.6,41.4,-100.00,North,-999,0.0,0.0,82,0.00,,,-99.99,FreeWX-Wi 1.01,2013-01-14 03:25:00,
2013-01-13 22:35:00,46.8,41.2,-100.00,North,-999,0.0,0.0,81,0.00,,,-99.99,FreeWX-Wi 1.01,2013-01-14 03:35:00,
2013-01-13 22:45:00,46.8,40.6,-100.00,North,-999,0.0,0.0,79,0.00,,,-99.99,FreeWX-Wi 1.01,2013-01-14 03:45:00,
2013-01-13 22:55:00,46.9,40.5,-100.00,North,-999,0.0,0.0,78,0.00,,,-99.99,FreeWX-Wi 1.01,2013-01-14 03:55:00,
2013-01-13 23:05:00,46.9,39.7,-100.00,North,-999,0.0,0.0,76,0.00,,,-99.99,FreeWX-Wi 1.01,2013-01-14 04:05:00,
2013-01-13 23:15:00,46.9,39.4,-100.00,North,-999,0.0,0.0,75,0.00,,,-99.99,FreeWX-Wi 1.01,2013-01-14 04:15:00,
2013-01-13 23:25:00,46.9,39.0,-100.00,North,-999,0.0,0.0,74,0.00,,,-99.99,FreeWX-Wi 1.01,2013-01-14 04:25:00,
2013-01-13 23:35:00,47.1,39.2,-100.00,North,-999,0.0,0.0,74,0.00,,,-99.99,FreeWX-Wi 1.01,2013-01-14 04:35:00,
2013-01-13 23:45:00,47.3,39.0,-100.00,North,-999,0.0,0.0,73,0.00,,,-99.99,FreeWX-Wi 1.01,2013-01-14 04:45:00,
2013-01-13 23:58:00,47.3,39.0,-100.00,North,-999,0.0,0.0,73,0.00,,,-99.99,FreeWX-Wi 1.01,2013-01-14 04:58:00,